Time;durP1;ratioP1;P1;durP2;ratioP2;P2;SDS_P1;SDS_P2;PMS_P1;PMS_P2;Temp;Humidity;BMP_temperature;BMP_pressure;BME280_temperature;BME280_humidity;BME280_pressure;Samples;Min_cycle;Max_cycle;Signal;HPM_P1;HPM_P2
2023/08/12 00:00:27;;;;;;;7.70;3.50;;;;;;;;;;4914611;29;20186;-72
2023/08/12 00:02:54;;;;;;;7.83;3.83;;;;;;;;;;4914546;29;20239;-72
2023/08/12 00:05:21;;;;;;;7.50;3.93;;;;;;;;;;4896470;29;20891;-72
2023/08/12 00:07:48;;;;;;;7.77;3.77;;;;;;;;;;4914462;29;20564;-72
2023/08/12 00:10:14;;;;;;;10.27;4.40;;;;;;;;;;4897336;29;20263;-72
2023/08/12 00:12:41;;;;;;;9.13;4.30;;;;;;;;;;4916302;29;20188;-73
2023/08/12 00:15:08;;;;;;;7.40;3.50;;;;;;;;;;4916877;29;20187;-72
2023/08/12 00:17:52;;;;;;;7.17;3.40;;;;;;;;;;4887926;29;20274;-72
2023/08/12 00:20:19;;;;;;;8.67;3.97;;;;;;;;;;4913187;29;20192;-72
2023/08/12 00:23:03;;;;;;;7.47;3.80;;;;;;;;;;4913830;29;20199;-72
2023/08/12 00:25:30;;;;;;;7.37;3.80;;;;;;;;;;4897353;29;20196;-72
2023/08/12 00:28:14;;;;;;;6.37;3.57;;;;;;;;;;4914118;29;20167;-72
2023/08/12 00:30:41;;;;;;;4.47;3.30;;;;;;;;;;4912905;29;20218;-72
2023/08/12 00:33:07;;;;;;;7.60;4.00;;;;;;;;;;4913815;29;20188;-72
2023/08/12 00:35:35;;;;;;;8.00;3.70;;;;;;;;;;4912219;29;20192;-72
2023/08/12 00:38:01;;;;;;;4.67;3.27;;;;;;;;;;4896751;29;20199;-72
2023/08/12 00:40:28;;;;;;;6.57;3.67;;;;;;;;;;4896969;29;20203;-72
2023/08/12 00:42:55;;;;;;;5.90;3.50;;;;;;;;;;4910035;29;20880;-72
2023/08/12 00:45:22;;;;;;;6.33;3.53;;;;;;;;;;4932314;29;20279;-72
2023/08/12 00:47:48;;;;;;;6.37;3.87;;;;;;;;;;4932705;29;20219;-72
2023/08/12 00:50:16;;;;;;;6.33;3.60;;;;;;;;;;4899647;29;20286;-73
2023/08/12 00:52:42;;;;;;;5.40;3.73;;;;;;;;;;4932377;29;20587;-72
2023/08/12 00:55:12;;;;;;;6.43;3.00;;;;;;;;;;4932248;29;20201;-72
2023/08/12 00:57:38;;;;;;;5.33;3.80;;;;;;;;;;4880927;29;20266;-72
2023/08/12 01:00:06;;;;;;;7.53;3.47;;;;;;;;;;4897059;29;20689;-72
2023/08/12 01:02:32;;;;;;;7.97;3.30;;;;;;;;;;4895985;29;20215;-72
2023/08/12 01:04:59;;;;;;;5.87;3.27;;;;;;;;;;4896450;29;20298;-73
2023/08/12 01:07:26;;;;;;;7.60;3.30;;;;;;;;;;4913466;29;20652;-72
2023/08/12 01:10:14;;;;;;;5.97;3.67;;;;;;;;;;4912327;29;20234;-72
2023/08/12 01:44:36;;;;;;;3.97;2.80;;;;;;;;;;4894808;29;20242;-73
2023/08/12 01:47:03;;;;;;;4.67;2.77;;;;;;;;;;4863671;29;20208;-72
2023/08/12 01:49:30;;;;;;;4.97;3.03;;;;;;;;;;4896304;29;20203;-73
2023/08/12 01:51:57;;;;;;;7.50;3.03;;;;;;;;;;4894852;29;20208;-72
2023/08/12 01:54:23;;;;;;;3.37;2.80;;;;;;;;;;4879330;29;20188;-72
2023/08/12 01:56:50;;;;;;;4.33;3.23;;;;;;;;;;4895991;29;20276;-72
2023/08/12 01:59:17;;;;;;;3.80;2.70;;;;;;;;;;4894502;29;20195;-72
2023/08/12 02:01:46;;;;;;;5.77;3.50;;;;;;;;;;4898091;29;20191;-72
2023/08/12 02:04:12;;;;;;;4.70;3.10;;;;;;;;;;4897703;29;20212;-72
2023/08/12 02:06:39;;;;;;;6.37;3.20;;;;;;;;;;4914687;29;20180;-72
2023/08/12 02:09:23;;;;;;;6.57;3.10;;;;;;;;;;4897788;29;20180;-72
2023/08/12 02:11:50;;;;;;;6.03;3.17;;;;;;;;;;4897864;29;20235;-72
2023/08/12 02:14:36;;;;;;;5.47;3.17;;;;;;;;;;4913092;29;20966;-73
2023/08/12 02:17:05;;;;;;;6.27;3.00;;;;;;;;;;4897343;29;20196;-72
2023/08/12 02:19:33;;;;;;;5.97;2.83;;;;;;;;;;4882691;29;20286;-72
2023/08/12 02:22:01;;;;;;;6.50;2.97;;;;;;;;;;4882296;29;20203;-72
2023/08/12 02:24:28;;;;;;;4.40;2.60;;;;;;;;;;4914454;29;20208;-73
2023/08/12 02:26:55;;;;;;;5.40;2.80;;;;;;;;;;4914502;29;20533;-72
2023/08/12 02:29:21;;;;;;;3.47;2.80;;;;;;;;;;4897435;29;20274;-72
2023/08/12 02:31:48;;;;;;;3.73;2.70;;;;;;;;;;4880640;29;20579;-72
2023/08/12 02:34:33;;;;;;;3.73;2.80;;;;;;;;;;4914273;29;20175;-72
2023/08/12 02:37:00;;;;;;;6.20;2.60;;;;;;;;;;4897545;29;20270;-72
2023/08/12 02:39:29;;;;;;;5.70;3.03;;;;;;;;;;4914303;29;20191;-72
2023/08/12 02:41:56;;;;;;;6.47;3.60;;;;;;;;;;4902722;29;20250;-72
2023/08/12 02:44:22;;;;;;;5.30;3.27;;;;;;;;;;4897904;29;20340;-72
2023/08/12 02:47:06;;;;;;;6.00;2.80;;;;;;;;;;4930515;29;20184;-72
2023/08/12 02:49:33;;;;;;;4.90;3.03;;;;;;;;;;4924203;29;20227;-72
2023/08/12 02:52:00;;;;;;;5.97;2.80;;;;;;;;;;4894691;29;20204;-72
2023/08/12 02:54:26;;;;;;;4.13;2.93;;;;;;;;;;4894332;29;20210;-72
2023/08/12 02:56:53;;;;;;;5.53;3.10;;;;;;;;;;4879388;29;20357;-72
2023/08/12 02:59:37;;;;;;;6.77;2.80;;;;;;;;;;4897202;29;20178;-72
2023/08/12 03:02:04;;;;;;;6.33;3.03;;;;;;;;;;4894348;29;20203;-72
2023/08/12 03:04:31;;;;;;;5.00;2.87;;;;;;;;;;4911803;29;20216;-72
2023/08/12 03:06:58;;;;;;;5.03;3.10;;;;;;;;;;4911649;29;20176;-72
2023/08/12 03:09:24;;;;;;;6.23;2.87;;;;;;;;;;4878910;29;20203;-73
2023/08/12 03:11:51;;;;;;;4.93;2.97;;;;;;;;;;4893002;29;20243;-72
2023/08/12 03:14:18;;;;;;;4.23;2.80;;;;;;;;;;4894429;29;20203;-72
2023/08/12 03:16:45;;;;;;;5.53;2.90;;;;;;;;;;4894731;29;20231;-72
2023/08/12 03:19:31;;;;;;;4.57;3.17;;;;;;;;;;4894531;29;20369;-72
2023/08/12 03:21:58;;;;;;;7.20;3.30;;;;;;;;;;4894677;29;20195;-72
2023/08/12 03:24:45;;;;;;;4.37;3.03;;;;;;;;;;4877942;29;20215;-72
2023/08/12 03:27:11;;;;;;;5.77;3.30;;;;;;;;;;4882457;29;20231;-72
2023/08/12 03:29:39;;;;;;;4.30;3.10;;;;;;;;;;4894477;29;20198;-72
2023/08/12 03:32:05;;;;;;;4.83;3.30;;;;;;;;;;4911254;29;20227;-72
2023/08/12 03:34:33;;;;;;;6.20;3.23;;;;;;;;;;4897765;29;20258;-73
2023/08/12 03:37:18;;;;;;;8.37;3.30;;;;;;;;;;4898385;29;20238;-72
2023/08/12 03:39:49;;;;;;;4.97;3.50;;;;;;;;;;4898226;29;20202;-72
2023/08/12 03:42:36;;;;;;;6.57;3.23;;;;;;;;;;4897752;29;20187;-72
2023/08/12 03:45:02;;;;;;;6.53;3.57;;;;;;;;;;4898052;29;20283;-72
2023/08/12 03:47:29;;;;;;;8.17;4.27;;;;;;;;;;4902792;29;20223;-72
2023/08/12 03:49:57;;;;;;;4.93;3.43;;;;;;;;;;4888340;29;20203;-72
2023/08/12 03:52:24;;;;;;;5.47;3.30;;;;;;;;;;4935708;29;20250;-73
2023/08/12 03:54:52;;;;;;;5.63;3.27;;;;;;;;;;4933688;29;20571;-72
2023/08/12 03:57:20;;;;;;;4.60;3.00;;;;;;;;;;4916982;29;20210;-72
2023/08/12 03:59:47;;;;;;;5.10;3.27;;;;;;;;;;4933469;29;20207;-72
2023/08/12 04:02:14;;;;;;;6.00;3.33;;;;;;;;;;4916095;29;20203;-72
2023/08/12 04:04:42;;;;;;;5.23;3.00;;;;;;;;;;4916428;29;20214;-72
2023/08/12 04:07:09;;;;;;;5.90;3.30;;;;;;;;;;4908715;29;20616;-72
2023/08/12 04:09:53;;;;;;;6.73;3.43;;;;;;;;;;4914222;29;20322;-72
2023/08/12 04:12:20;;;;;;;4.80;3.50;;;;;;;;;;4914707;29;20203;-72
2023/08/12 04:14:47;;;;;;;6.07;3.30;;;;;;;;;;4914946;29;20199;-72
2023/08/12 04:17:14;;;;;;;9.67;3.50;;;;;;;;;;4914212;29;20223;-72
2023/08/12 04:19:41;;;;;;;6.23;3.23;;;;;;;;;;4914089;29;20277;-73
2023/08/12 04:22:08;;;;;;;6.40;3.53;;;;;;;;;;4897523;29;20286;-72
2023/08/12 04:24:35;;;;;;;5.83;3.10;;;;;;;;;;4912565;29;20210;-72
2023/08/12 04:27:01;;;;;;;5.40;3.20;;;;;;;;;;4897607;29;20754;-72
2023/08/12 04:29:46;;;;;;;7.40;4.07;;;;;;;;;;4900487;29;20216;-71
2023/08/12 04:32:13;;;;;;;6.00;3.90;;;;;;;;;;4881666;29;20682;-71
2023/08/12 04:34:57;;;;;;;6.97;3.50;;;;;;;;;;4917156;29;20183;-71
2023/08/12 04:37:25;;;;;;;3.93;3.53;;;;;;;;;;4900123;29;20196;-72
2023/08/12 04:39:53;;;;;;;7.70;3.80;;;;;;;;;;4919137;29;20202;-72
2023/08/12 04:42:21;;;;;;;6.83;3.67;;;;;;;;;;4900737;29;20208;-72
2023/08/12 04:44:49;;;;;;;6.93;3.50;;;;;;;;;;4895440;29;20226;-72
2023/08/12 04:47:15;;;;;;;7.37;3.93;;;;;;;;;;4925529;29;20256;-72
2023/08/12 04:49:42;;;;;;;6.93;3.80;;;;;;;;;;4895560;29;20234;-72
2023/08/12 04:52:09;;;;;;;8.13;3.80;;;;;;;;;;4880993;29;20199;-71
2023/08/12 04:54:36;;;;;;;7.60;3.43;;;;;;;;;;4896229;29;20259;-72
2023/08/12 04:57:03;;;;;;;6.13;4.00;;;;;;;;;;4900957;29;20254;-72
2023/08/12 04:59:29;;;;;;;8.93;3.80;;;;;;;;;;4899494;29;20554;-74
2023/08/12 05:01:57;;;;;;;7.27;4.03;;;;;;;;;;4859229;29;20644;-72
2023/08/12 05:04:31;;;;;;;6.20;3.90;;;;;;;;;;4895214;29;20242;-72
2023/08/12 05:07:16;;;;;;;6.37;3.87;;;;;;;;;;4897703;29;20235;-72
2023/08/12 05:09:46;;;;;;;8.93;4.30;;;;;;;;;;4895277;29;20207;-73
2023/08/12 05:12:14;;;;;;;8.83;4.63;;;;;;;;;;4910231;29;20199;-72
2023/08/12 05:14:41;;;;;;;6.60;4.10;;;;;;;;;;4881898;29;20231;-72
2023/08/12 05:17:08;;;;;;;9.13;4.10;;;;;;;;;;4887359;29;20200;-72
2023/08/12 05:19:54;;;;;;;7.63;4.10;;;;;;;;;;4899654;29;20249;-72
2023/08/12 05:22:21;;;;;;;8.33;4.20;;;;;;;;;;4894706;29;20191;-73
2023/08/12 05:24:49;;;;;;;7.33;4.07;;;;;;;;;;4877050;29;20299;-73
2023/08/12 05:27:16;;;;;;;7.73;4.00;;;;;;;;;;4898604;29;20195;-72
2023/08/12 05:29:43;;;;;;;6.57;4.30;;;;;;;;;;4930701;29;20319;-73
2023/08/12 05:32:10;;;;;;;6.37;3.97;;;;;;;;;;4910070;29;20604;-72
2023/08/12 05:34:37;;;;;;;6.37;4.03;;;;;;;;;;4904521;29;20189;-74
2023/08/12 05:37:04;;;;;;;7.97;4.23;;;;;;;;;;4888995;29;20877;-73
2023/08/12 05:39:31;;;;;;;8.80;4.40;;;;;;;;;;4910484;29;20192;-72
2023/08/12 05:41:58;;;;;;;7.27;3.90;;;;;;;;;;4916269;29;20199;-72
2023/08/12 05:44:25;;;;;;;7.10;4.10;;;;;;;;;;4893010;29;20714;-73
2023/08/12 05:46:51;;;;;;;8.63;4.27;;;;;;;;;;4890428;29;20199;-74
2023/08/12 05:49:18;;;;;;;8.83;4.50;;;;;;;;;;4894193;29;20916;-74
2023/08/12 05:51:45;;;;;;;7.97;3.90;;;;;;;;;;4893532;29;20198;-73
2023/08/12 05:54:12;;;;;;;5.73;3.37;;;;;;;;;;4919046;29;20202;-72
2023/08/12 05:56:39;;;;;;;6.40;3.60;;;;;;;;;;4906523;29;20225;-72
2023/08/12 05:59:06;;;;;;;7.10;4.23;;;;;;;;;;4910372;29;20191;-72
2023/08/12 06:01:50;;;;;;;7.17;3.37;;;;;;;;;;4916614;29;20753;-72
2023/08/12 06:04:17;;;;;;;5.30;3.73;;;;;;;;;;4897237;29;20227;-72
2023/08/12 06:06:43;;;;;;;7.50;3.50;;;;;;;;;;4914393;29;20694;-73
2023/08/12 06:09:10;;;;;;;5.63;3.43;;;;;;;;;;4914646;29;20187;-72
2023/08/12 06:11:37;;;;;;;7.20;3.30;;;;;;;;;;4912699;29;20231;-71
2023/08/12 06:14:04;;;;;;;10.37;3.10;;;;;;;;;;4912379;29;20258;-72
2023/08/12 06:16:31;;;;;;;7.33;3.40;;;;;;;;;;4913189;29;20195;-72
2023/08/12 06:18:58;;;;;;;5.87;3.00;;;;;;;;;;4882493;29;20594;-71
2023/08/12 06:21:24;;;;;;;4.80;2.40;;;;;;;;;;4915460;29;20203;-72
2023/08/12 06:23:51;;;;;;;3.80;2.33;;;;;;;;;;4914064;29;20691;-72
2023/08/12 06:26:18;;;;;;;6.47;2.70;;;;;;;;;;4913191;29;20195;-72
2023/08/12 06:28:45;;;;;;;5.07;2.60;;;;;;;;;;4908528;29;20196;-72
2023/08/12 06:31:11;;;;;;;5.83;2.17;;;;;;;;;;4890624;29;20946;-72
2023/08/12 06:33:38;;;;;;;4.90;2.30;;;;;;;;;;4913129;29;20191;-72
2023/08/12 06:36:05;;;;;;;4.40;2.20;;;;;;;;;;4894275;29;20215;-73
2023/08/12 06:38:32;;;;;;;4.30;1.73;;;;;;;;;;4908205;29;20229;-73
2023/08/12 06:40:59;;;;;;;5.30;2.40;;;;;;;;;;4891231;29;20548;-72
2023/08/12 06:43:43;;;;;;;6.23;1.80;;;;;;;;;;4890917;29;20202;-72
2023/08/12 06:46:10;;;;;;;5.37;2.27;;;;;;;;;;4898316;29;20220;-72
2023/08/12 06:48:55;;;;;;;3.50;1.60;;;;;;;;;;4911040;29;20184;-72
2023/08/12 06:51:22;;;;;;;6.23;2.10;;;;;;;;;;4892449;29;20210;-73
2023/08/12 06:53:50;;;;;;;3.00;1.73;;;;;;;;;;4888345;29;20215;-72
2023/08/12 06:56:18;;;;;;;7.47;1.90;;;;;;;;;;4891471;29;20668;-72
2023/08/12 06:58:45;;;;;;;88.10;6.77;;;;;;;;;;4900124;29;20203;-74
2023/08/12 07:01:13;;;;;;;4.23;1.87;;;;;;;;;;4904238;29;20195;-73
2023/08/12 07:03:41;;;;;;;3.53;2.10;;;;;;;;;;4896878;29;20203;-73
2023/08/12 07:06:08;;;;;;;3.57;1.80;;;;;;;;;;4908021;29;20791;-72
2023/08/12 07:08:35;;;;;;;3.33;1.90;;;;;;;;;;4893681;29;20200;-74
2023/08/12 07:11:02;;;;;;;3.00;1.90;;;;;;;;;;4893276;29;20337;-72
2023/08/12 07:13:29;;;;;;;3.53;2.00;;;;;;;;;;4907422;29;20195;-70
2023/08/12 07:15:56;;;;;;;3.63;1.50;;;;;;;;;;4911805;29;20307;-71
2023/08/12 07:18:23;;;;;;;3.13;1.93;;;;;;;;;;4912019;29;20603;-73
2023/08/12 07:20:50;;;;;;;4.03;1.77;;;;;;;;;;4911398;29;20191;-73
2023/08/12 07:23:17;;;;;;;2.70;1.50;;;;;;;;;;4912760;29;20242;-73
2023/08/12 07:25:45;;;;;;;2.80;1.80;;;;;;;;;;4914188;29;20217;-69
2023/08/12 07:28:12;;;;;;;4.00;1.80;;;;;;;;;;4899382;29;20202;-69
2023/08/12 07:30:39;;;;;;;3.57;1.60;;;;;;;;;;4899736;29;20186;-74
2023/08/12 07:33:06;;;;;;;5.03;1.90;;;;;;;;;;4908355;29;20193;-75
2023/08/12 07:35:33;;;;;;;3.90;1.83;;;;;;;;;;4877024;29;20215;-72
2023/08/12 07:38:00;;;;;;;3.00;1.70;;;;;;;;;;4874594;29;20210;-72
2023/08/12 07:40:26;;;;;;;4.83;2.00;;;;;;;;;;4899519;29;20188;-72
2023/08/12 07:42:53;;;;;;;4.73;2.10;;;;;;;;;;4893863;29;20231;-72
2023/08/12 07:45:21;;;;;;;2.93;1.70;;;;;;;;;;4911465;29;20306;-73
2023/08/12 07:47:48;;;;;;;3.27;1.80;;;;;;;;;;4894392;29;20205;-72
2023/08/12 07:50:15;;;;;;;2.97;1.63;;;;;;;;;;4910845;29;20202;-73
2023/08/12 07:52:42;;;;;;;4.83;1.93;;;;;;;;;;4911301;29;20239;-72
2023/08/12 07:55:09;;;;;;;4.20;2.00;;;;;;;;;;4911237;29;20208;-72
2023/08/12 07:57:36;;;;;;;4.80;2.00;;;;;;;;;;4878500;29;20226;-72
2023/08/12 08:00:03;;;;;;;4.37;2.20;;;;;;;;;;4911264;29;20851;-72
2023/08/12 08:02:30;;;;;;;4.47;2.00;;;;;;;;;;4910988;29;20600;-72
2023/08/12 08:04:57;;;;;;;4.43;2.00;;;;;;;;;;4909513;29;20215;-72
2023/08/12 08:07:24;;;;;;;6.53;1.90;;;;;;;;;;4911261;29;20199;-73
2023/08/12 08:09:51;;;;;;;3.33;1.57;;;;;;;;;;4910382;29;20216;-72
2023/08/12 08:12:18;;;;;;;4.53;2.13;;;;;;;;;;4894865;29;20564;-73
2023/08/12 08:14:45;;;;;;;4.13;1.80;;;;;;;;;;4910220;29;20548;-72
2023/08/12 08:17:12;;;;;;;3.90;1.70;;;;;;;;;;4893105;29;20924;-72
2023/08/12 08:19:39;;;;;;;3.57;1.67;;;;;;;;;;4912748;29;20604;-74
2023/08/12 08:22:06;;;;;;;3.40;1.97;;;;;;;;;;4916346;29;20192;-72
2023/08/12 08:24:32;;;;;;;4.53;2.03;;;;;;;;;;4913870;29;20207;-72
2023/08/12 08:26:59;;;;;;;4.30;1.80;;;;;;;;;;4897505;29;20274;-72
2023/08/12 08:29:43;;;;;;;3.70;1.97;;;;;;;;;;4883828;29;20194;-73
2023/08/12 08:32:10;;;;;;;3.27;2.00;;;;;;;;;;4897073;29;20213;-72
2023/08/12 08:34:54;;;;;;;3.60;1.90;;;;;;;;;;4899639;29;20640;-72
2023/08/12 08:37:22;;;;;;;3.77;1.50;;;;;;;;;;4897577;29;20180;-73
2023/08/12 08:40:08;;;;;;;3.17;1.90;;;;;;;;;;4912694;29;20209;-72
2023/08/12 08:42:34;;;;;;;4.30;2.10;;;;;;;;;;4926706;29;20203;-72
2023/08/12 08:45:02;;;;;;;4.60;1.80;;;;;;;;;;4916566;29;20302;-73
2023/08/12 08:47:29;;;;;;;4.40;2.00;;;;;;;;;;4916120;29;20213;-72
2023/08/12 08:49:58;;;;;;;3.57;1.90;;;;;;;;;;4915561;29;20192;-72
2023/08/12 08:52:25;;;;;;;2.87;1.60;;;;;;;;;;4915712;29;20189;-72
2023/08/12 08:54:53;;;;;;;4.40;2.20;;;;;;;;;;4915909;29;20202;-72
2023/08/12 08:57:20;;;;;;;4.97;1.80;;;;;;;;;;4910205;29;20199;-72
2023/08/12 08:59:50;;;;;;;5.07;1.90;;;;;;;;;;4913958;29;20192;-72
2023/08/12 09:02:20;;;;;;;3.00;1.83;;;;;;;;;;4914032;29;20594;-72
2023/08/12 09:04:47;;;;;;;3.27;2.00;;;;;;;;;;4913169;29;20298;-72
2023/08/12 09:07:14;;;;;;;4.23;1.67;;;;;;;;;;4896625;29;20555;-72
2023/08/12 09:09:44;;;;;;;5.17;2.10;;;;;;;;;;4896183;29;20192;-72
2023/08/12 09:12:12;;;;;;;4.97;2.30;;;;;;;;;;4896902;29;20195;-72
2023/08/12 09:14:39;;;;;;;4.30;1.90;;;;;;;;;;4895111;29;20196;-73
2023/08/12 09:17:06;;;;;;;3.93;1.77;;;;;;;;;;4931881;29;20670;-72
2023/08/12 09:19:33;;;;;;;3.87;2.10;;;;;;;;;;4932031;29;20274;-73
2023/08/12 09:22:00;;;;;;;4.67;2.33;;;;;;;;;;4915618;29;20191;-73
2023/08/12 09:24:27;;;;;;;4.83;1.90;;;;;;;;;;4915174;29;20191;-73
2023/08/12 09:26:55;;;;;;;5.93;1.60;;;;;;;;;;4932214;29;20278;-73
2023/08/12 09:29:22;;;;;;;4.83;2.10;;;;;;;;;;4899658;29;20201;-72
2023/08/12 09:31:49;;;;;;;4.63;1.90;;;;;;;;;;4930911;29;20203;-73
2023/08/12 09:34:16;;;;;;;6.47;1.93;;;;;;;;;;4895159;29;20228;-72
2023/08/12 09:36:43;;;;;;;4.90;2.03;;;;;;;;;;4896025;29;20198;-73
2023/08/12 09:39:09;;;;;;;3.47;2.10;;;;;;;;;;4896574;29;20195;-72
2023/08/12 09:41:37;;;;;;;4.03;1.80;;;;;;;;;;4867040;29;20184;-73
2023/08/12 09:44:04;;;;;;;3.47;2.07;;;;;;;;;;4931635;29;20599;-72
2023/08/12 09:46:33;;;;;;;2.67;1.70;;;;;;;;;;4914433;29;20230;-73
2023/08/12 09:49:19;;;;;;;3.27;2.00;;;;;;;;;;4915804;29;20214;-73
2023/08/12 09:51:46;;;;;;;4.10;2.13;;;;;;;;;;4912708;29;20196;-73
2023/08/12 09:54:33;;;;;;;4.87;2.00;;;;;;;;;;4912846;29;20175;-73
2023/08/12 09:57:00;;;;;;;3.60;2.00;;;;;;;;;;4896567;29;20678;-73
2023/08/12 09:59:46;;;;;;;4.17;1.90;;;;;;;;;;4912419;29;20187;-73
2023/08/12 10:02:17;;;;;;;3.13;1.77;;;;;;;;;;4895681;29;20203;-73
2023/08/12 10:04:45;;;;;;;3.23;1.70;;;;;;;;;;4894885;29;20203;-73
2023/08/12 10:07:14;;;;;;;3.10;1.67;;;;;;;;;;4912496;29;20205;-73
2023/08/12 10:09:41;;;;;;;3.83;2.00;;;;;;;;;;4880453;29;20196;-73
2023/08/12 10:12:09;;;;;;;2.50;2.00;;;;;;;;;;4880266;29;20683;-73
2023/08/12 10:14:36;;;;;;;4.00;2.30;;;;;;;;;;4895584;29;20193;-72
2023/08/12 10:17:03;;;;;;;4.63;2.00;;;;;;;;;;4895634;29;20203;-73
2023/08/12 10:19:32;;;;;;;5.27;1.90;;;;;;;;;;4895623;29;20251;-73
2023/08/12 10:21:59;;;;;;;4.43;2.13;;;;;;;;;;4923118;29;20643;-72
2023/08/12 10:24:26;;;;;;;4.03;2.30;;;;;;;;;;4930764;29;20178;-73
2023/08/12 10:26:53;;;;;;;4.17;1.90;;;;;;;;;;4914497;29;20262;-71
2023/08/12 10:29:20;;;;;;;3.23;2.23;;;;;;;;;;4914264;29;20292;-72
2023/08/12 10:31:47;;;;;;;4.87;2.17;;;;;;;;;;4931281;29;20187;-73
2023/08/12 10:34:20;;;;;;;5.80;1.93;;;;;;;;;;4898581;29;20636;-72
2023/08/12 10:36:48;;;;;;;3.57;2.07;;;;;;;;;;4912401;29;20222;-73
2023/08/12 10:39:29;;;;;;;6.17;2.30;;;;;;;;;;4864778;29;20648;-72
2023/08/12 10:41:56;;;;;;;4.60;1.97;;;;;;;;;;4900724;29;20359;-72
2023/08/12 10:44:26;;;;;;;6.13;2.50;;;;;;;;;;4911232;29;20188;-73
2023/08/12 10:46:54;;;;;;;4.47;2.03;;;;;;;;;;4911573;29;20579;-72
2023/08/12 10:49:21;;;;;;;4.97;2.00;;;;;;;;;;4911718;29;20181;-72
2023/08/12 10:51:54;;;;;;;4.67;2.00;;;;;;;;;;4894885;29;20223;-72
2023/08/12 10:54:31;;;;;;;3.77;1.87;;;;;;;;;;4895594;29;20239;-72
2023/08/12 10:57:01;;;;;;;3.73;1.93;;;;;;;;;;4917475;29;20195;-72
2023/08/12 10:59:46;;;;;;;5.57;2.40;;;;;;;;;;4911123;29;20270;-72
2023/08/12 11:02:16;;;;;;;5.17;2.20;;;;;;;;;;4911399;29;20741;-73
2023/08/12 11:04:43;;;;;;;3.47;1.97;;;;;;;;;;4908725;29;20275;-72
2023/08/12 11:07:23;;;;;;;4.63;2.10;;;;;;;;;;4879599;29;20207;-73
2023/08/12 11:09:53;;;;;;;4.67;2.17;;;;;;;;;;4894852;29;20199;-72
2023/08/12 11:12:30;;;;;;;3.40;2.40;;;;;;;;;;4879741;29;20766;-73
2023/08/12 11:15:14;;;;;;;4.60;2.37;;;;;;;;;;4911700;29;20178;-72
2023/08/12 11:17:40;;;;;;;3.97;2.40;;;;;;;;;;4911560;29;20275;-73
2023/08/12 11:20:09;;;;;;;5.83;1.90;;;;;;;;;;4894994;29;20274;-72
2023/08/12 11:22:37;;;;;;;5.97;2.40;;;;;;;;;;4894925;29;20176;-72
2023/08/12 11:25:08;;;;;;;6.77;2.30;;;;;;;;;;4911399;29;20239;-72
2023/08/12 11:27:39;;;;;;;3.83;2.30;;;;;;;;;;4879005;29;20203;-72
2023/08/12 11:30:06;;;;;;;3.33;2.20;;;;;;;;;;4894948;29;20696;-72
2023/08/12 11:32:33;;;;;;;3.57;1.93;;;;;;;;;;4894514;29;20189;-72
2023/08/12 11:35:00;;;;;;;5.10;2.13;;;;;;;;;;4894840;29;20225;-72
2023/08/12 11:37:26;;;;;;;3.50;2.20;;;;;;;;;;4911616;29;20687;-73
2023/08/12 11:39:53;;;;;;;4.27;2.17;;;;;;;;;;4901577;29;20201;-72
2023/08/12 11:42:20;;;;;;;4.13;2.10;;;;;;;;;;4902263;29;20568;-73
2023/08/12 11:44:46;;;;;;;4.37;2.20;;;;;;;;;;4878878;29;20179;-72
2023/08/12 11:47:13;;;;;;;11.73;2.60;;;;;;;;;;4911013;29;20218;-72
2023/08/12 11:49:57;;;;;;;3.43;2.00;;;;;;;;;;4911208;29;20265;-72
2023/08/12 11:52:24;;;;;;;2.63;1.87;;;;;;;;;;4911269;29;20273;-73
2023/08/12 11:55:08;;;;;;;3.00;2.10;;;;;;;;;;4899903;29;20199;-73
2023/08/12 11:57:38;;;;;;;2.53;2.20;;;;;;;;;;4896642;29;20202;-72
2023/08/12 12:00:13;;;;;;;2.80;2.13;;;;;;;;;;4883003;29;20678;-72
2023/08/12 12:02:50;;;;;;;3.77;2.23;;;;;;;;;;4899332;29;20206;-72
2023/08/12 12:05:34;;;;;;;4.40;2.40;;;;;;;;;;4914611;29;20207;-72
2023/08/12 12:08:02;;;;;;;2.73;2.03;;;;;;;;;;4914753;29;20850;-72
2023/08/12 12:10:29;;;;;;;4.73;2.20;;;;;;;;;;4914809;29;20325;-72
2023/08/12 12:13:00;;;;;;;5.30;2.37;;;;;;;;;;4912981;29;20214;-72
2023/08/12 12:15:27;;;;;;;3.43;2.27;;;;;;;;;;4897676;29;20191;-72
2023/08/12 12:18:12;;;;;;;3.17;2.17;;;;;;;;;;4900418;29;20243;-72
2023/08/12 12:20:53;;;;;;;3.87;2.43;;;;;;;;;;4882069;29;20194;-72
2023/08/12 12:23:37;;;;;;;4.03;2.10;;;;;;;;;;4883811;29;20210;-73
2023/08/12 12:26:04;;;;;;;4.70;2.00;;;;;;;;;;4914392;29;20237;-72
2023/08/12 12:28:31;;;;;;;6.70;2.30;;;;;;;;;;4897580;29;20293;-72
2023/08/12 12:30:58;;;;;;;5.27;2.33;;;;;;;;;;4914149;29;20177;-73
2023/08/12 12:33:25;;;;;;;4.70;2.10;;;;;;;;;;4912850;29;20276;-72
2023/08/12 12:35:51;;;;;;;3.63;2.30;;;;;;;;;;4914088;29;20259;-72
2023/08/12 12:38:24;;;;;;;7.27;2.03;;;;;;;;;;4898220;29;20203;-72
2023/08/12 12:40:51;;;;;;;3.77;2.07;;;;;;;;;;4914461;29;20309;-72
2023/08/12 12:43:35;;;;;;;4.77;2.30;;;;;;;;;;4895117;29;20170;-72
2023/08/12 12:46:02;;;;;;;3.10;2.00;;;;;;;;;;4895316;29;20250;-73
2023/08/12 12:48:47;;;;;;;3.70;2.40;;;;;;;;;;4878037;29;20548;-76
2023/08/12 12:51:14;;;;;;;3.27;2.07;;;;;;;;;;4913598;29;20205;-72
2023/08/12 12:53:40;;;;;;;3.77;2.10;;;;;;;;;;4914310;29;20278;-72
2023/08/12 12:56:07;;;;;;;5.27;2.40;;;;;;;;;;4913707;29;20207;-72
2023/08/12 12:58:34;;;;;;;3.03;2.20;;;;;;;;;;4896957;29;20198;-72
2023/08/12 13:01:01;;;;;;;3.90;2.10;;;;;;;;;;4897306;29;20671;-72
2023/08/12 13:03:29;;;;;;;4.43;2.33;;;;;;;;;;4897200;29;20199;-71
2023/08/12 13:05:55;;;;;;;2.33;1.90;;;;;;;;;;4911289;29;20263;-72
2023/08/12 13:08:22;;;;;;;3.43;2.30;;;;;;;;;;4913572;29;20288;-71
2023/08/12 13:10:49;;;;;;;3.50;2.03;;;;;;;;;;4896730;29;20234;-71
2023/08/12 13:13:17;;;;;;;5.20;2.37;;;;;;;;;;4912927;29;20226;-71
2023/08/12 13:16:02;;;;;;;3.67;2.30;;;;;;;;;;4913622;29;20651;-72
2023/08/12 13:18:29;;;;;;;4.17;2.17;;;;;;;;;;4896677;29;20175;-72
2023/08/12 13:20:55;;;;;;;2.63;2.00;;;;;;;;;;4911852;29;20209;-71
2023/08/12 13:23:22;;;;;;;4.47;2.00;;;;;;;;;;4913508;29;20193;-72
2023/08/12 13:25:49;;;;;;;5.30;2.17;;;;;;;;;;4896441;29;20179;-71
2023/08/12 13:28:16;;;;;;;3.60;2.00;;;;;;;;;;4913433;29;20191;-71
2023/08/12 13:30:44;;;;;;;3.80;1.90;;;;;;;;;;4913049;29;20202;-72
2023/08/12 13:33:12;;;;;;;2.77;2.00;;;;;;;;;;4913162;29;20202;-72
2023/08/12 13:35:39;;;;;;;6.03;2.23;;;;;;;;;;4913521;29;20626;-71
2023/08/12 13:38:06;;;;;;;3.00;2.10;;;;;;;;;;4913261;29;20536;-72
2023/08/12 13:40:33;;;;;;;5.10;2.00;;;;;;;;;;4910741;29;20214;-71
2023/08/12 13:43:00;;;;;;;2.87;1.90;;;;;;;;;;4912819;29;20190;-72
2023/08/12 13:45:28;;;;;;;2.30;2.10;;;;;;;;;;4913019;29;20205;-72
2023/08/12 13:47:55;;;;;;;5.07;2.20;;;;;;;;;;4911485;29;20218;-72
2023/08/12 13:50:22;;;;;;;3.03;1.90;;;;;;;;;;4907058;29;20992;-71
2023/08/12 13:52:50;;;;;;;3.30;2.00;;;;;;;;;;4895005;29;20214;-72
2023/08/12 13:55:17;;;;;;;3.10;2.07;;;;;;;;;;4899968;29;20230;-71
2023/08/12 13:57:44;;;;;;;3.27;2.10;;;;;;;;;;4909567;29;20200;-74
2023/08/12 14:00:12;;;;;;;4.27;2.10;;;;;;;;;;4894211;29;20271;-74
2023/08/12 14:02:42;;;;;;;7.43;2.10;;;;;;;;;;4877661;29;20279;-67
2023/08/12 14:05:10;;;;;;;5.03;2.00;;;;;;;;;;4904202;29;20197;-68
2023/08/12 14:07:38;;;;;;;4.80;2.07;;;;;;;;;;4910680;29;20281;-68
2023/08/12 14:10:07;;;;;;;4.30;2.10;;;;;;;;;;4864500;29;20752;-68
2023/08/12 14:12:33;;;;;;;3.20;1.97;;;;;;;;;;4894794;29;20255;-68
2023/08/12 14:15:01;;;;;;;4.23;2.20;;;;;;;;;;4902988;29;20190;-67
2023/08/12 14:17:28;;;;;;;4.00;2.00;;;;;;;;;;4901656;29;20201;-68
2023/08/12 14:19:55;;;;;;;3.43;1.73;;;;;;;;;;4895433;29;20195;-68
2023/08/12 14:22:22;;;;;;;3.73;1.97;;;;;;;;;;4898710;29;20187;-68
2023/08/12 14:24:50;;;;;;;5.73;2.40;;;;;;;;;;4907490;29;20198;-74
2023/08/12 14:27:17;;;;;;;4.00;2.20;;;;;;;;;;4902391;29;20223;-74
2023/08/12 14:29:44;;;;;;;2.30;1.90;;;;;;;;;;4884644;29;20254;-74
2023/08/12 14:32:11;;;;;;;5.93;2.53;;;;;;;;;;4883366;29;20263;-71
2023/08/12 14:34:39;;;;;;;17.77;10.57;;;;;;;;;;4893162;29;20206;-72
2023/08/12 14:37:08;;;;;;;8.17;4.13;;;;;;;;;;4883471;29;20920;-74
2023/08/12 14:39:35;;;;;;;9.07;2.70;;;;;;;;;;4885216;29;20277;-76
2023/08/12 14:42:04;;;;;;;7.23;2.50;;;;;;;;;;4901173;29;20202;-75
2023/08/12 14:44:32;;;;;;;4.90;2.10;;;;;;;;;;4875279;29;20199;-74
2023/08/12 14:47:03;;;;;;;5.60;2.47;;;;;;;;;;4888758;29;20214;-75
2023/08/12 14:49:31;;;;;;;4.80;2.47;;;;;;;;;;4891191;29;20194;-75
2023/08/12 14:51:59;;;;;;;4.50;2.73;;;;;;;;;;4888288;29;20224;-74
2023/08/12 14:54:26;;;;;;;3.80;2.10;;;;;;;;;;4896568;29;20208;-75
2023/08/12 14:56:53;;;;;;;3.40;1.70;;;;;;;;;;4880660;29;20217;-71
2023/08/12 14:59:21;;;;;;;6.57;2.27;;;;;;;;;;4892587;29;20719;-70
2023/08/12 15:01:49;;;;;;;4.43;2.30;;;;;;;;;;4899918;29;20207;-71
2023/08/12 15:04:17;;;;;;;5.50;2.00;;;;;;;;;;4895844;29;20200;-71
2023/08/12 15:06:45;;;;;;;7.17;1.80;;;;;;;;;;4898820;29;20208;-71
2023/08/12 15:09:13;;;;;;;5.60;2.40;;;;;;;;;;4886774;29;20239;-72
2023/08/12 15:11:40;;;;;;;4.37;1.90;;;;;;;;;;4907663;29;20603;-71
2023/08/12 15:14:07;;;;;;;5.70;2.50;;;;;;;;;;4922496;29;20829;-72
2023/08/12 15:16:34;;;;;;;5.43;2.07;;;;;;;;;;4900063;29;20555;-71
2023/08/12 15:19:18;;;;;;;7.03;2.23;;;;;;;;;;4908673;29;20582;-72
2023/08/12 15:21:46;;;;;;;7.97;2.37;;;;;;;;;;4880082;29;20290;-71
2023/08/12 15:24:30;;;;;;;5.73;2.50;;;;;;;;;;4899916;29;20210;-70
2023/08/12 15:26:57;;;;;;;6.63;2.40;;;;;;;;;;4906587;29;20738;-69